Time;durP1;ratioP1;P1;durP2;ratioP2;P2;SDS_P1;SDS_P2;PMS_P1;PMS_P2;Temp;Humidity;BMP_temperature;BMP_pressure;BME280_temperature;BME280_humidity;BME280_pressure;Samples;Min_cycle;Max_cycle;Signal;HPM_P1;HPM_P2
2022/11/25 00:00:20;;;;;;;2.75;1.27;;;;;;;6.03;49.03;92422.34;5090112;28;20020;-73
2022/11/25 00:02:46;;;;;;;2.92;1.65;;;;;;;6.01;48.99;92421.81;5073285;28;20398;-74
2022/11/25 00:05:11;;;;;;;1.77;1.13;;;;;;;6.01;48.09;92418.44;5089583;28;20077;-74
2022/11/25 00:07:37;;;;;;;3.60;1.75;;;;;;;6.01;48.19;92415.81;5091054;28;20137;-74
2022/11/25 00:10:04;;;;;;;3.08;1.48;;;;;;;6.00;48.72;92414.28;5091145;28;20024;-74
2022/11/25 00:12:30;;;;;;;3.45;1.75;;;;;;;5.99;49.60;92423.09;5091174;28;20040;-74
2022/11/25 00:14:56;;;;;;;2.25;1.35;;;;;;;5.98;49.89;92422.31;5073008;28;20036;-74
2022/11/25 00:17:22;;;;;;;1.92;1.13;;;;;;;5.92;49.71;92425.94;5093392;28;20535;-73
2022/11/25 00:19:47;;;;;;;2.58;1.30;;;;;;;5.90;49.84;92422.81;5095420;28;20028;-73
2022/11/25 00:22:14;;;;;;;1.45;1.00;;;;;;;5.89;49.50;92434.25;5094021;28;20520;-73
2022/11/25 00:24:40;;;;;;;1.20;0.98;;;;;;;5.89;49.60;92428.28;5092841;28;20540;-74
2022/11/25 00:27:06;;;;;;;1.95;0.90;;;;;;;5.91;49.40;92431.41;5074875;28;20072;-74
2022/11/25 00:29:33;;;;;;;1.13;0.80;;;;;;;5.93;48.79;92427.50;5073718;28;20543;-73
2022/11/25 00:31:59;;;;;;;2.40;1.30;;;;;;;5.97;48.88;92428.56;5073550;28;20029;-74
2022/11/25 00:34:24;;;;;;;3.55;1.30;;;;;;;5.96;49.42;92427.00;5056806;28;20053;-74
2022/11/25 00:36:52;;;;;;;1.42;0.80;;;;;;;5.94;49.48;92425.66;5073636;28;20028;-74
2022/11/25 00:39:21;;;;;;;0.70;0.70;;;;;;;5.91;49.80;92432.16;5074815;28;20036;-74
2022/11/25 00:44:34;;;;;;;1.10;0.85;;;;;;;5.88;50.20;92443.09;5073344;28;20037;-74
2022/11/25 00:47:11;;;;;;;2.55;0.98;;;;;;;5.86;50.40;92450.34;5074078;28;20028;-74
2022/11/25 00:49:39;;;;;;;1.88;1.10;;;;;;;5.86;50.72;92449.59;5094717;28;20040;-74
2022/11/25 00:52:05;;;;;;;2.40;0.98;;;;;;;5.86;50.75;92465.16;5076460;28;20056;-74
2022/11/25 00:54:31;;;;;;;3.03;1.10;;;;;;;5.85;51.10;92464.38;5093332;28;20165;-74
2022/11/25 00:56:58;;;;;;;3.95;1.30;;;;;;;5.84;51.30;92463.59;5093180;28;20054;-74
2022/11/25 00:59:24;;;;;;;1.77;1.00;;;;;;;5.83;50.95;92471.63;5076336;28;20032;-74
2022/11/25 01:01:49;;;;;;;0.80;0.70;;;;;;;5.86;51.45;92476.34;5093251;28;20031;-74
2022/11/25 01:04:17;;;;;;;2.92;1.42;;;;;;;5.88;51.75;92486.44;5093520;28;20028;-74
2022/11/25 01:06:43;;;;;;;1.20;0.90;;;;;;;5.88;51.18;92484.66;5093287;28;20032;-74
2022/11/25 01:09:11;;;;;;;1.70;1.00;;;;;;;5.89;51.87;92493.22;5076027;28;20032;-74
2022/11/25 01:11:38;;;;;;;2.03;0.90;;;;;;;5.89;51.13;92490.63;5093476;28;20501;-74
2022/11/25 01:14:04;;;;;;;1.80;1.00;;;;;;;5.91;50.82;92478.16;5093550;28;20036;-73
2022/11/25 01:16:30;;;;;;;3.58;1.10;;;;;;;5.93;50.63;92482.06;5075861;28;20046;-74
2022/11/25 01:18:58;;;;;;;1.88;0.93;;;;;;;5.95;50.45;92477.41;5092842;28;20485;-74
2022/11/25 01:21:26;;;;;;;2.35;0.95;;;;;;;5.96;50.61;92491.97;5094397;28;20131;-74
2022/11/25 01:23:52;;;;;;;4.10;1.30;;;;;;;5.95;52.25;92495.59;5094383;28;20489;-74
2022/11/25 01:26:21;;;;;;;1.77;1.00;;;;;;;5.93;52.49;92497.66;5092490;28;20115;-73
2022/11/25 01:28:47;;;;;;;2.00;1.10;;;;;;;5.90;52.35;92498.16;5085843;28;20478;-73
2022/11/25 01:31:16;;;;;;;2.75;1.17;;;;;;;5.91;50.94;92502.31;5072631;28;20036;-74
2022/11/25 01:33:42;;;;;;;2.20;1.17;;;;;;;5.95;50.15;92500.81;5073631;28;20036;-74
2022/11/25 01:36:13;;;;;;;1.15;0.90;;;;;;;5.99;49.46;92488.06;5089042;28;20071;-74
2022/11/25 01:38:41;;;;;;;2.83;1.10;;;;;;;6.01;49.64;92488.59;5073543;28;20043;-74
2022/11/25 01:41:09;;;;;;;2.78;1.15;;;;;;;6.00;50.74;92492.25;5073671;28;20034;-74
2022/11/25 01:43:35;;;;;;;2.97;1.17;;;;;;;5.97;51.66;92488.34;5089255;28;20093;-74
2022/11/25 01:46:19;;;;;;;2.60;1.20;;;;;;;5.93;52.41;92487.25;5073315;28;20036;-74
2022/11/25 01:48:59;;;;;;;2.65;1.20;;;;;;;5.90;52.78;92492.97;5091679;28;20038;-74
2022/11/25 01:51:43;;;;;;;2.65;1.30;;;;;;;5.87;52.64;92482.31;5093526;28;20050;-74
2022/11/25 01:54:12;;;;;;;2.72;1.20;;;;;;;5.84;52.50;92496.59;5093272;28;20521;-73
2022/11/25 01:56:54;;;;;;;4.78;1.30;;;;;;;5.80;53.45;92493.72;5092169;28;20119;-73
2022/11/25 01:59:22;;;;;;;2.17;1.20;;;;;;;5.79;53.49;92512.16;5075565;28;20032;-74
2022/11/25 02:01:48;;;;;;;0.85;0.75;;;;;;;5.72;53.02;92502.03;5091994;28;20069;-74
2022/11/25 02:04:16;;;;;;;3.83;1.10;;;;;;;5.75;52.91;92513.72;5092038;28;20043;-74
2022/11/25 02:06:51;;;;;;;1.02;0.85;;;;;;;5.73;53.50;92513.19;5075046;28;20529;-73
2022/11/25 02:09:21;;;;;;;1.40;0.98;;;;;;;5.70;53.56;92518.91;5093245;28;20507;-74
2022/11/25 02:11:48;;;;;;;2.53;1.13;;;;;;;5.67;53.53;92520.16;5091943;28;20043;-74
2022/11/25 02:14:16;;;;;;;1.67;1.08;;;;;;;5.68;53.26;92518.38;5091873;28;20028;-74
2022/11/25 02:16:42;;;;;;;2.53;1.23;;;;;;;5.67;53.63;92514.97;5093103;28;20036;-73
2022/11/25 02:19:21;;;;;;;1.98;1.05;;;;;;;5.66;53.13;92520.44;5093084;28;20032;-73
2022/11/25 02:21:54;;;;;;;1.48;1.00;;;;;;;5.62;53.05;92507.94;5090903;28;20069;-73
2022/11/25 02:24:44;;;;;;;1.77;1.00;;;;;;;5.61;53.17;92501.19;5074963;28;20489;-73
2022/11/25 02:27:12;;;;;;;1.55;1.08;;;;;;;5.60;53.38;92504.81;5091672;28;20448;-73
2022/11/25 02:29:42;;;;;;;1.05;0.80;;;;;;;5.69;50.48;92512.13;5074898;28;20097;-73
2022/11/25 02:32:07;;;;;;;1.30;0.90;;;;;;;5.77;51.96;92515.03;5083994;28;20094;-74
2022/11/25 02:34:33;;;;;;;1.20;0.80;;;;;;;5.76;51.72;92513.44;5079252;28;20029;-73
2022/11/25 02:36:59;;;;;;;2.20;1.20;;;;;;;5.82;50.61;92522.03;5071067;28;20044;-74
2022/11/25 02:39:25;;;;;;;1.60;1.10;;;;;;;5.86;50.31;92515.31;5070390;28;20551;-74
2022/11/25 02:41:54;;;;;;;2.40;1.20;;;;;;;5.94;50.59;92508.81;5071351;28;20037;-73
2022/11/25 02:44:20;;;;;;;2.20;1.27;;;;;;;6.02;50.36;92519.53;5054500;28;20383;-74
2022/11/25 02:46:46;;;;;;;1.77;1.10;;;;;;;5.94;51.00;92509.63;5072075;28;20039;-74
2022/11/25 02:49:12;;;;;;;2.15;1.00;;;;;;;5.85;51.93;92500.75;5072255;28;20064;-74
2022/11/25 02:51:42;;;;;;;1.30;1.10;;;;;;;5.77;52.43;92509.81;5070749;28;20024;-74
2022/11/25 02:54:08;;;;;;;1.67;1.20;;;;;;;5.70;52.18;92503.31;5070730;28;20044;-74
2022/11/25 02:56:35;;;;;;;1.73;1.20;;;;;;;5.68;52.78;92500.19;5070476;28;20047;-74
2022/11/25 02:59:02;;;;;;;3.03;1.10;;;;;;;5.62;53.26;92502.75;5070526;28;20028;-74
2022/11/25 03:01:30;;;;;;;3.47;1.20;;;;;;;5.58;53.96;92504.31;5054194;28;20040;-74
2022/11/25 03:03:56;;;;;;;3.15;1.30;;;;;;;5.55;55.00;92493.66;5070632;28;20407;-74
2022/11/25 03:06:22;;;;;;;2.72;1.40;;;;;;;5.49;55.12;92498.03;5070479;28;20125;-74
2022/11/25 03:08:48;;;;;;;1.67;1.00;;;;;;;5.44;55.30;92516.19;5070547;28;20056;-74
2022/11/25 03:11:14;;;;;;;2.55;1.30;;;;;;;5.39;55.59;92510.97;5071890;28;20248;-74
2022/11/25 03:13:40;;;;;;;1.50;1.00;;;;;;;5.34;55.85;92510.97;5054088;28;20070;-75
2022/11/25 03:16:06;;;;;;;2.17;1.17;;;;;;;5.31;55.49;92508.84;5053517;28;20397;-74
2022/11/25 03:18:32;;;;;;;2.60;1.15;;;;;;;5.32;55.24;92518.22;5071686;28;20041;-74
2022/11/25 03:20:58;;;;;;;3.08;1.63;;;;;;;5.30;54.91;92513.28;5070442;28;20028;-74
2022/11/25 03:23:24;;;;;;;2.63;1.52;;;;;;;5.29;54.99;92518.72;5071567;28;20086;-74
2022/11/25 03:25:52;;;;;;;2.33;1.20;;;;;;;5.25;55.81;92521.03;5071515;28;20138;-74
2022/11/25 03:28:18;;;;;;;2.35;1.27;;;;;;;5.27;55.88;92518.19;5053140;28;20077;-74
2022/11/25 03:30:44;;;;;;;1.80;1.00;;;;;;;5.21;55.55;92517.38;5071374;28;20482;-74
2022/11/25 03:33:10;;;;;;;2.63;1.17;;;;;;;5.19;57.18;92522.03;5070144;28;20086;-74
2022/11/25 03:35:35;;;;;;;1.98;1.17;;;;;;;5.17;56.21;92534.47;5053316;28;20033;-74
2022/11/25 03:38:02;;;;;;;1.75;1.10;;;;;;;5.15;55.93;92528.75;5069936;28;20041;-74
2022/11/25 03:40:30;;;;;;;2.40;1.30;;;;;;;5.12;56.43;92527.44;5070075;28;20494;-74
2022/11/25 03:42:55;;;;;;;2.35;1.10;;;;;;;5.12;56.75;92524.84;5052492;28;20035;-74
2022/11/25 03:45:22;;;;;;;2.88;1.25;;;;;;;5.10;57.00;92534.69;5053427;28;20036;-74
2022/11/25 03:47:48;;;;;;;2.13;1.08;;;;;;;5.08;57.54;92533.41;5069811;28;20089;-74
2022/11/25 03:50:14;;;;;;;1.98;1.08;;;;;;;5.04;57.11;92540.88;5052954;28;20393;-74
2022/11/25 03:52:41;;;;;;;1.85;1.10;;;;;;;5.00;56.05;92542.44;5053285;28;20044;-74
2022/11/25 03:55:08;;;;;;;1.83;1.00;;;;;;;5.00;55.99;92543.22;5053261;28;20425;-74
2022/11/25 03:57:35;;;;;;;2.20;1.10;;;;;;;4.99;56.02;92543.47;5053150;28;20413;-74
2022/11/25 04:00:02;;;;;;;1.63;1.00;;;;;;;4.97;56.10;92537.75;5052867;28;20032;-74
2022/11/25 04:02:43;;;;;;;1.75;1.08;;;;;;;4.97;56.10;92535.13;5071021;28;20040;-74
2022/11/25 04:05:10;;;;;;;1.92;1.20;;;;;;;4.98;55.97;92539.31;5069735;28;20036;-75
2022/11/25 04:07:35;;;;;;;1.25;0.82;;;;;;;4.95;56.57;92535.41;5060260;28;20466;-74
2022/11/25 04:10:02;;;;;;;1.65;1.05;;;;;;;4.93;56.65;92532.28;5069465;28;20422;-74
2022/11/25 04:12:45;;;;;;;1.35;1.00;;;;;;;4.91;56.30;92531.75;5069708;28;20119;-74
2022/11/25 04:15:16;;;;;;;2.50;1.20;;;;;;;4.91;56.12;92533.53;5071619;28;20037;-74
2022/11/25 04:17:41;;;;;;;6.13;1.20;;;;;;;4.88;56.10;92528.84;5069392;28;20041;-74
2022/11/25 04:20:08;;;;;;;2.03;1.00;;;;;;;4.87;55.86;92532.50;5070856;28;20513;-74
2022/11/25 04:22:35;;;;;;;2.35;1.20;;;;;;;4.82;55.89;92528.06;5069532;28;20036;-74
2022/11/25 04:25:03;;;;;;;1.42;1.00;;;;;;;4.84;55.93;92527.78;5069830;28;20033;-74
2022/11/25 04:27:29;;;;;;;2.97;1.02;;;;;;;4.82;56.56;92530.66;5076268;28;20024;-76
2022/11/25 04:29:56;;;;;;;2.40;1.00;;;;;;;4.81;56.23;92529.06;5090225;28;20047;-75
2022/11/25 04:32:22;;;;;;;1.67;0.93;;;;;;;4.78;56.14;92532.94;5073483;28;20043;-74
2022/11/25 04:34:48;;;;;;;1.75;1.10;;;;;;;4.78;56.33;92532.16;5089560;28;20032;-74
2022/11/25 04:37:14;;;;;;;1.95;1.02;;;;;;;4.75;56.50;92532.66;5089461;28;20044;-74
2022/11/25 04:39:41;;;;;;;2.38;1.30;;;;;;;4.73;57.30;92535.50;5072837;28;20159;-74
2022/11/25 04:42:38;;;;;;;2.03;1.25;;;;;;;4.69;56.75;92526.66;5090824;28;20044;-74
2022/11/25 04:45:07;;;;;;;2.42;1.23;;;;;;;4.67;56.61;92536.50;5089315;28;20032;-74
2022/11/25 04:47:33;;;;;;;2.47;1.20;;;;;;;4.67;56.87;92544.28;5089342;28;20040;-74
2022/11/25 04:49:59;;;;;;;2.30;1.40;;;;;;;4.64;56.72;92539.59;5089440;28;20024;-74
2022/11/25 04:52:25;;;;;;;2.92;1.40;;;;;;;4.65;56.74;92548.94;5086938;28;20044;-75
2022/11/25 04:54:52;;;;;;;2.35;1.30;;;;;;;4.63;57.00;92548.38;5089318;28;20581;-75
2022/11/25 04:57:18;;;;;;;2.25;1.33;;;;;;;4.57;57.30;92545.00;5090719;28;20032;-73
2022/11/25 04:59:44;;;;;;;2.60;1.50;;;;;;;4.57;57.20;92544.19;5056221;28;20051;-73
2022/11/25 05:02:14;;;;;;;2.47;1.30;;;;;;;4.55;57.56;92549.63;5090546;28;20043;-73
2022/11/25 05:04:43;;;;;;;2.80;1.50;;;;;;;4.56;57.36;92553.00;5093070;28;20047;-73
2022/11/25 05:07:11;;;;;;;2.28;1.27;;;;;;;4.54;57.02;92555.06;5093255;28;20669;-73
2022/11/25 05:09:37;;;;;;;3.10;1.48;;;;;;;4.54;56.82;92560.25;5060378;28;20045;-73
2022/11/25 05:12:22;;;;;;;2.90;1.35;;;;;;;4.53;56.50;92559.47;5073990;28;20490;-74
2022/11/25 05:14:48;;;;;;;2.70;1.50;;;;;;;4.51;56.08;92558.16;5072689;28;20037;-73
2022/11/25 05:17:20;;;;;;;1.98;1.02;;;;;;;4.48;56.16;92553.44;5072594;28;20047;-73
2022/11/25 05:19:46;;;;;;;2.10;1.27;;;;;;;4.49;55.68;92558.41;5072606;28;20035;-73
2022/11/25 05:22:16;;;;;;;2.67;1.42;;;;;;;4.43;56.30;92559.38;5072733;28;20370;-73
2022/11/25 05:24:43;;;;;;;3.55;1.30;;;;;;;4.35;56.54;92558.03;5093301;28;20039;-73
2022/11/25 05:27:09;;;;;;;2.22;1.17;;;;;;;4.27;56.34;92565.44;5093488;28;20731;-72
2022/11/25 05:29:36;;;;;;;2.33;1.13;;;;;;;4.21;56.19;92567.22;5092450;28;20036;-72
2022/11/25 05:32:02;;;;;;;1.13;0.80;;;;;;;4.15;56.20;92566.38;5092340;28;20047;-72
2022/11/25 05:34:29;;;;;;;1.45;0.90;;;;;;;4.11;55.72;92560.13;5092520;28;20036;-73
2022/11/25 05:36:55;;;;;;;1.30;1.00;;;;;;;4.09;55.35;92563.97;5075792;28;20035;-73
2022/11/25 05:39:22;;;;;;;1.50;1.10;;;;;;;4.07;55.41;92566.03;5109436;28;20035;-73
2022/11/25 05:42:13;;;;;;;2.25;1.02;;;;;;;4.03;55.80;92570.94;5069225;28;20052;-73
2022/11/25 05:44:39;;;;;;;2.22;1.08;;;;;;;3.97;56.18;92564.91;5092349;28;20493;-73
2022/11/25 05:47:05;;;;;;;2.17;1.15;;;;;;;3.96;56.29;92570.31;5080703;28;20062;-73
2022/11/25 05:49:31;;;;;;;2.22;1.10;;;;;;;3.93;56.23;92569.00;5072053;28;20033;-73
2022/11/25 05:52:00;;;;;;;2.72;0.90;;;;;;;3.93;56.11;92576.00;5071979;28;20059;-73
2022/11/25 05:54:27;;;;;;;2.30;1.20;;;;;;;3.91;56.40;92571.03;5055436;28;20036;-73
2022/11/25 05:56:53;;;;;;;1.30;0.98;;;;;;;3.90;56.24;92566.91;5071661;28;20048;-73
2022/11/25 05:59:30;;;;;;;4.47;1.25;;;;;;;3.89;56.39;92573.09;5072168;28;20047;-73
2022/11/25 06:02:06;;;;;;;2.08;1.02;;;;;;;3.90;57.19;92569.50;5072955;28;20498;-73
2022/11/25 06:04:32;;;;;;;1.83;1.08;;;;;;;3.90;56.94;92574.66;5071832;28;20040;-73
2022/11/25 06:06:57;;;;;;;1.58;0.93;;;;;;;3.87;57.19;92569.19;5071485;28;20060;-74
2022/11/25 06:09:23;;;;;;;0.98;0.70;;;;;;;3.84;56.81;92562.69;5073059;28;20122;-73
2022/11/25 06:11:50;;;;;;;2.13;1.00;;;;;;;3.82;57.04;92566.53;5055103;28;20048;-75
2022/11/25 06:14:16;;;;;;;0.90;0.82;;;;;;;3.79;57.52;92572.22;5053757;28;20474;-75
2022/11/25 06:16:43;;;;;;;1.23;0.90;;;;;;;3.77;57.30;92577.63;5055109;28;20071;-74
2022/11/25 06:19:22;;;;;;;1.67;0.88;;;;;;;3.76;57.07;92581.25;5057072;28;20470;-75
2022/11/25 06:21:48;;;;;;;0.90;0.80;;;;;;;3.78;57.06;92581.78;5071461;28;20044;-75
2022/11/25 06:24:14;;;;;;;1.33;0.80;;;;;;;3.80;56.88;92584.91;5056895;28;20056;-75
2022/11/25 06:26:42;;;;;;;1.15;0.82;;;;;;;3.79;57.02;92578.19;5076753;28;20060;-77
2022/11/25 06:29:07;;;;;;;1.95;0.98;;;;;;;3.78;57.18;92579.19;5073019;28;20491;-76
2022/11/25 06:31:33;;;;;;;1.35;0.85;;;;;;;3.74;57.67;92576.31;5088132;28;20486;-76
2022/11/25 06:34:14;;;;;;;1.30;0.80;;;;;;;3.71;57.54;92576.00;5070896;28;20127;-76
2022/11/25 06:36:40;;;;;;;1.58;0.90;;;;;;;3.67;57.58;92580.91;5088168;28;20106;-76
2022/11/25 06:39:05;;;;;;;3.83;1.10;;;;;;;3.66;57.56;92578.53;5072326;28;20036;-76
2022/11/25 06:41:32;;;;;;;3.50;1.00;;;;;;;3.63;58.00;92581.63;5072781;28;20071;-76
2022/11/25 06:43:58;;;;;;;3.15;1.00;;;;;;;3.61;57.80;92584.44;5105067;28;20036;-76
2022/11/25 06:46:23;;;;;;;2.03;1.20;;;;;;;3.61;58.02;92587.03;5071204;28;20039;-76
2022/11/25 06:48:49;;;;;;;1.45;0.90;;;;;;;3.60;58.22;92587.25;5071599;28;20035;-76
2022/11/25 06:51:15;;;;;;;1.85;1.00;;;;;;;3.60;58.12;92592.44;5104621;28;20747;-75
2022/11/25 06:53:41;;;;;;;2.08;1.20;;;;;;;3.59;58.55;92596.84;5070723;28;20083;-76
2022/11/25 06:56:14;;;;;;;2.85;0.90;;;;;;;3.61;58.45;92594.78;5071184;28;20039;-76
2022/11/25 06:58:41;;;;;;;2.45;1.20;;;;;;;3.61;58.41;92599.19;5071963;28;20070;-75
2022/11/25 07:01:10;;;;;;;1.95;0.93;;;;;;;3.61;57.92;92594.78;5071491;28;20039;-76
2022/11/25 07:03:36;;;;;;;1.40;1.00;;;;;;;3.63;57.93;92597.16;5105222;28;20428;-76
2022/11/25 07:06:03;;;;;;;3.90;1.20;;;;;;;3.64;58.17;92599.47;5104607;28;20032;-75
2022/11/25 07:08:29;;;;;;;1.73;1.20;;;;;;;3.67;58.23;92601.59;5071791;28;20040;-76
2022/11/25 07:11:00;;;;;;;1.70;1.10;;;;;;;3.73;57.99;92597.25;5087569;28;20159;-76
2022/11/25 07:13:26;;;;;;;4.25;1.10;;;;;;;3.79;57.67;92601.47;5071978;28;20055;-75
2022/11/25 07:15:51;;;;;;;2.70;1.40;;;;;;;3.82;58.06;92601.00;5071729;28;20040;-75
2022/11/25 07:18:17;;;;;;;2.70;1.20;;;;;;;3.90;58.59;92597.97;5071676;28;20039;-76
2022/11/25 07:20:42;;;;;;;3.50;1.17;;;;;;;4.27;57.70;92607.69;5053851;28;20048;-75
2022/11/25 07:23:08;;;;;;;7.65;1.20;;;;;;;5.42;56.53;92614.31;5070287;28;20075;-75
2022/11/25 07:25:33;;;;;;;1.88;1.00;;;;;;;6.19;55.10;92609.47;5070383;28;20024;-76
2022/11/25 07:27:59;;;;;;;3.72;1.00;;;;;;;7.21;52.74;92607.00;5071368;28;20047;-76
2022/11/25 07:30:25;;;;;;;4.20;1.15;;;;;;;7.05;51.72;92606.25;5070510;28;20037;-76
2022/11/25 07:32:50;;;;;;;2.00;1.10;;;;;;;8.50;51.02;92616.00;5053729;28;20028;-76
2022/11/25 07:35:16;;;;;;;4.65;1.60;;;;;;;9.83;48.46;92610.78;5071313;28;20131;-76
2022/11/25 07:37:42;;;;;;;3.08;1.60;;;;;;;11.03;45.23;92600.91;5071474;28;20040;-77
2022/11/25 07:40:08;;;;;;;3.38;1.55;;;;;;;12.22;43.53;92608.28;5104162;28;20397;-76
2022/11/25 07:42:33;;;;;;;2.63;1.55;;;;;;;13.11;39.93;92614.81;5071500;28;20447;-77
2022/11/25 07:45:00;;;;;;;4.95;1.65;;;;;;;14.11;38.52;92616.31;5086922;28;20037;-77
2022/11/25 07:47:55;;;;;;;3.53;1.70;;;;;;;15.09;36.30;92609.09;5091815;28;20075;-77
2022/11/25 07:50:20;;;;;;;3.90;1.92;;;;;;;15.85;34.91;92613.06;5072147;28;20040;-78
2022/11/25 07:52:46;;;;;;;3.55;1.77;;;;;;;15.19;34.54;92616.69;5073179;28;20064;-76
2022/11/25 07:55:11;;;;;;;2.63;1.50;;;;;;;15.96;33.15;92619.53;5055626;28;20041;-77
2022/11/25 07:57:37;;;;;;;2.83;1.60;;;;;;;16.33;32.69;92619.84;5073446;28;20044;-78
2022/11/25 08:00:04;;;;;;;5.82;1.70;;;;;;;16.85;30.98;92630.16;5072404;28;20037;-77
2022/11/25 08:02:37;;;;;;;14.40;3.42;;;;;;;17.51;30.95;92634.03;5104040;28;20076;-78
2022/11/25 08:05:03;;;;;;;7.75;2.08;;;;;;;18.06;29.00;92632.88;5072791;28;20082;-77
2022/11/25 08:07:28;;;;;;;3.60;1.80;;;;;;;18.18;28.06;92636.66;5072704;28;20066;-78
2022/11/25 08:09:54;;;;;;;5.15;1.83;;;;;;;18.64;28.07;92632.84;5074838;28;20020;-78
2022/11/25 08:12:19;;;;;;;4.22;1.90;;;;;;;19.84;27.63;92635.13;5073380;28;20041;-78
2022/11/25 08:14:45;;;;;;;3.10;1.75;;;;;;;19.11;27.89;92642.94;5072925;28;20051;-78
2022/11/25 08:17:11;;;;;;;3.83;2.00;;;;;;;16.39;31.56;92637.09;5073253;28;20024;-78
2022/11/25 08:19:36;;;;;;;3.45;1.80;;;;;;;14.30;35.60;92642.41;5072123;28;20089;-77
2022/11/25 08:22:02;;;;;;;5.32;1.90;;;;;;;13.49;37.63;92642.63;5072940;28;20143;-77
2022/11/25 08:24:27;;;;;;;3.72;2.00;;;;;;;12.88;38.72;92645.53;5071371;28;20032;-77
2022/11/25 08:26:53;;;;;;;4.95;2.10;;;;;;;12.14;40.91;92648.34;5072502;28;20655;-77
2022/11/25 08:29:19;;;;;;;4.15;2.00;;;;;;;11.75;41.97;92644.25;5072042;28;20040;-77
2022/11/25 08:31:45;;;;;;;3.55;1.90;;;;;;;11.73;43.13;92646.44;5087872;28;20521;-77
2022/11/25 08:34:20;;;;;;;4.20;1.92;;;;;;;13.19;42.39;92649.34;5072392;28;20482;-77
2022/11/25 08:36:47;;;;;;;4.53;1.80;;;;;;;13.21;40.27;92657.69;5072480;28;20067;-77
2022/11/25 08:39:13;;;;;;;3.80;1.80;;;;;;;12.97;39.30;92656.13;5076496;28;20041;-77
2022/11/25 08:41:38;;;;;;;3.50;1.70;;;;;;;13.78;38.58;92663.25;5075401;28;20028;-77
2022/11/25 08:44:06;;;;;;;3.58;1.73;;;;;;;14.22;37.03;92658.94;5076755;28;20067;-77
2022/11/25 08:46:35;;;;;;;3.83;1.88;;;;;;;13.17;36.66;92672.50;5076282;28;20506;-77
2022/11/25 08:49:02;;;;;;;5.18;1.70;;;;;;;14.12;35.48;92667.91;5076099;28;20509;-77
2022/11/25 08:51:30;;;;;;;3.35;1.65;;;;;;;14.83;33.04;92672.31;5056871;28;20044;-76
2022/11/25 08:53:56;;;;;;;3.38;1.83;;;;;;;13.94;35.04;92677.56;5073650;28;20037;-76
2022/11/25 08:56:23;;;;;;;3.25;1.80;;;;;;;14.28;34.30;92678.81;5073331;28;20032;-76
2022/11/25 08:58:49;;;;;;;2.92;1.60;;;;;;;14.37;33.46;92682.25;5074361;28;20074;-76
2022/11/25 09:01:15;;;;;;;4.07;2.10;;;;;;;14.55;34.06;92687.59;5074334;28;20141;-76
2022/11/25 09:03:44;;;;;;;3.72;1.70;;;;;;;14.17;34.11;92688.03;5107192;28;20052;-76
2022/11/25 09:06:10;;;;;;;2.35;1.35;;;;;;;14.68;34.12;92678.00;5074179;28;20131;-75
2022/11/25 09:08:38;;;;;;;4.18;1.42;;;;;;;14.76;33.19;92683.31;5074180;28;20115;-76
2022/11/25 09:11:04;;;;;;;2.97;1.58;;;;;;;14.86;33.57;92682.25;5106901;28;20131;-76
2022/11/25 09:13:30;;;;;;;5.40;2.28;;;;;;;14.92;37.01;92681.00;5074379;28;20059;-76
2022/11/25 09:15:56;;;;;;;5.55;2.10;;;;;;;13.51;39.18;92678.06;5074010;28;20048;-76
2022/11/25 09:18:25;;;;;;;5.40;2.28;;;;;;;12.85;41.33;92679.50;5074915;28;20117;-76
2022/11/25 09:20:52;;;;;;;5.63;2.28;;;;;;;11.77;44.66;92680.69;5073941;28;20514;-76
2022/11/25 09:23:18;;;;;;;7.80;2.42;;;;;;;11.33;46.39;92677.47;5073570;28;20032;-76
2022/11/25 09:25:52;;;;;;;6.38;2.40;;;;;;;10.96;47.82;92673.78;5073887;28;20119;-75
2022/11/25 09:28:18;;;;;;;5.65;2.50;;;;;;;10.87;48.90;92672.88;5072425;28;20036;-76
2022/11/25 09:30:44;;;;;;;11.52;3.67;;;;;;;11.20;49.21;92673.72;5072570;28;20059;-76
2022/11/25 09:33:10;;;;;;;6.65;2.42;;;;;;;12.03;46.10;92667.97;5073369;28;20040;-74
2022/11/25 09:35:35;;;;;;;5.93;2.03;;;;;;;11.76;45.82;92672.06;5072331;28;20036;-75
2022/11/25 09:38:01;;;;;;;4.38;1.95;;;;;;;11.66;46.86;92675.66;5073571;28;20064;-76
2022/11/25 09:40:39;;;;;;;3.92;2.30;;;;;;;11.39;47.96;92681.56;5073344;28;20496;-75
2022/11/25 09:46:41;;;;;;;;;;;;;;;10.74;49.99;92691.91;5072523;28;20036;-76
2022/11/25 09:49:22;;;;;;;6.82;2.55;;;;;;;10.98;50.29;92690.00;5072051;28;19974;-75
2022/11/25 09:52:03;;;;;;;4.80;1.92;;;;;;;11.22;46.54;92692.56;5073206;28;20060;-75
2022/11/25 09:54:43;;;;;;;4.07;2.00;;;;;;;11.50;48.67;92678.78;5073243;28;20037;-74
2022/11/25 09:57:14;;;;;;;5.32;2.33;;;;;;;11.06;49.68;92677.34;5073228;28;20033;-75
2022/11/25 09:59:47;;;;;;;4.72;2.80;;;;;;;11.12;50.35;92689.31;5105628;28;20066;-75
2022/11/25 10:02:25;;;;;;;4.13;2.30;;;;;;;11.21;51.70;92690.22;5072141;28;20127;-75
2022/11/25 10:04:58;;;;;;;5.75;2.38;;;;;;;11.13;50.05;92688.25;5073118;28;20492;-75
2022/11/25 10:07:33;;;;;;;5.07;2.28;;;;;;;11.07;50.00;92684.13;5072589;28;20035;-77
2022/11/25 10:10:02;;;;;;;4.78;2.42;;;;;;;10.93;50.42;92695.31;5074201;28;20032;-79
2022/11/25 10:12:32;;;;;;;5.78;2.50;;;;;;;11.25;50.33;92691.22;5114770;28;20050;-78
2022/11/25 10:15:17;;;;;;;5.40;2.60;;;;;;;11.46;49.04;92676.75;5093647;28;20165;-77
2022/11/25 10:17:49;;;;;;;5.25;2.50;;;;;;;11.43;48.39;92669.44;5091917;28;20051;-76
2022/11/25 10:20:25;;;;;;;3.70;1.98;;;;;;;11.17;48.36;92679.53;5091967;28;20043;-75
2022/11/25 10:22:54;;;;;;;4.85;2.70;;;;;;;11.17;49.81;92673.53;5092942;28;20024;-78
2022/11/25 10:25:28;;;;;;;8.40;2.60;;;;;;;11.11;49.49;92667.56;5091929;28;20558;-76
2022/11/25 10:27:58;;;;;;;5.63;2.50;;;;;;;11.11;49.28;92669.41;5091454;28;20055;-77
2022/11/25 10:30:33;;;;;;;8.32;2.70;;;;;;;11.24;48.67;92668.69;5093169;28;20108;-75
2022/11/25 10:33:05;;;;;;;5.70;3.00;;;;;;;11.09;48.55;92672.31;5091492;28;20032;-76
2022/11/25 10:35:36;;;;;;;7.00;3.08;;;;;;;10.88;50.68;92661.34;5092723;28;20032;-75
2022/11/25 10:38:06;;;;;;;3.70;2.10;;;;;;;10.99;50.13;92657.53;5091610;28;20162;-76
2022/11/25 10:40:32;;;;;;;5.75;2.58;;;;;;;11.04;49.24;92654.81;5092699;28;20111;-75
2022/11/25 10:43:00;;;;;;;7.68;2.33;;;;;;;11.12;49.57;92650.00;5093178;28;20556;-77
2022/11/25 10:45:40;;;;;;;3.50;2.00;;;;;;;10.95;51.34;92647.91;5091852;28;20039;-76
2022/11/25 10:48:24;;;;;;;8.80;3.42;;;;;;;11.04;51.51;92652.22;5093826;28;20051;-77
2022/11/25 10:51:17;;;;;;;5.15;2.70;;;;;;;11.34;50.70;92634.47;5091848;28;20070;-78
2022/11/25 10:54:10;;;;;;;6.28;2.92;;;;;;;11.68;50.00;92625.50;5090917;28;20048;-75
2022/11/25 10:56:58;;;;;;;6.20;3.08;;;;;;;11.59;49.74;92628.00;5092203;28;20024;-75
2022/11/25 10:59:27;;;;;;;7.45;3.05;;;;;;;11.57;49.13;92629.38;5090693;28;20533;-76
2022/11/25 11:02:24;;;;;;;5.53;2.60;;;;;;;11.82;49.05;92623.72;5073879;28;20039;-76
2022/11/25 11:05:00;;;;;;;5.50;2.50;;;;;;;11.61;49.39;92625.88;5092149;28;20385;-75
2022/11/25 11:07:34;;;;;;;5.07;2.40;;;;;;;11.17;51.37;92623.75;5092050;28;20032;-75
2022/11/25 11:10:21;;;;;;;6.68;2.67;;;;;;;11.37;50.13;92620.81;5091797;28;20024;-77
2022/11/25 11:13:04;;;;;;;10.30;3.03;;;;;;;11.46;50.75;92626.16;5092092;28;20501;-76
2022/11/25 11:15:46;;;;;;;6.95;2.90;;;;;;;11.25;49.69;92620.47;5092065;28;20486;-76
2022/11/25 11:18:36;;;;;;;5.35;2.70;;;;;;;11.29;49.56;92624.06;5091892;28;20067;-76
2022/11/25 11:21:04;;;;;;;4.60;2.30;;;;;;;11.38;49.96;92617.09;5090684;28;20056;-76
2022/11/25 11:23:29;;;;;;;5.78;2.80;;;;;;;11.51;49.71;92610.34;5090509;28;20097;-77
2022/11/25 11:26:03;;;;;;;3.88;2.28;;;;;;;11.36;49.44;92610.59;5092496;28;20275;-76
2022/11/25 11:28:35;;;;;;;4.47;2.35;;;;;;;11.33;49.39;92604.09;5090529;28;20123;-77
2022/11/25 11:31:01;;;;;;;4.80;2.70;;;;;;;11.38;49.10;92606.63;5073868;28;20114;-75
2022/11/25 11:33:35;;;;;;;4.63;2.40;;;;;;;11.26;48.46;92606.31;5091054;28;20024;-77
2022/11/25 11:36:25;;;;;;;4.07;2.25;;;;;;;11.41;48.62;92598.16;5091618;28;20028;-75
2022/11/25 11:39:32;;;;;;;5.15;2.47;;;;;;;11.36;48.56;92607.97;5090308;28;20085;-75
2022/11/25 11:42:20;;;;;;;4.68;2.20;;;;;;;11.40;47.37;92599.25;5035425;28;20055;-76
2022/11/25 11:44:51;;;;;;;5.20;2.50;;;;;;;11.71;47.48;92593.50;5091072;28;20075;-75
2022/11/25 11:47:34;;;;;;;6.32;2.42;;;;;;;11.92;45.23;92591.28;5091413;28;20130;-76
2022/11/25 11:50:22;;;;;;;2.92;1.65;;;;;;;11.79;45.42;92590.19;5091454;28;20035;-76
2022/11/25 11:53:00;;;;;;;8.30;2.50;;;;;;;11.67;46.33;92589.88;5091291;28;20036;-75
2022/11/25 11:55:59;;;;;;;4.00;2.00;;;;;;;11.94;44.15;92594.41;5091334;28;20032;-75